createdAt,value
2023-01-08T00:01:15.649Z,8.80
2023-01-08T00:03:42.658Z,8.70
2023-01-08T00:06:13.681Z,8.80
2023-01-08T00:08:40.588Z,8.80
2023-01-08T00:11:07.632Z,8.70
2023-01-08T00:13:35.077Z,8.70
2023-01-08T00:16:11.698Z,8.60
2023-01-08T00:18:39.965Z,8.70
2023-01-08T00:21:07.412Z,8.80
2023-01-08T00:23:35.150Z,8.90
2023-01-08T00:26:03.730Z,8.80
2023-01-08T00:28:30.556Z,8.90
2023-01-08T00:30:57.419Z,8.90
2023-01-08T00:33:24.208Z,8.90
2023-01-08T00:35:51.211Z,8.90
2023-01-08T00:38:18.383Z,8.90
2023-01-08T00:40:45.471Z,8.90
2023-01-08T00:43:12.135Z,8.90
2023-01-08T00:45:39.156Z,8.90
2023-01-08T00:48:06.250Z,9.00
2023-01-08T00:50:33.085Z,9.00
2023-01-08T00:53:00.783Z,9.00
2023-01-08T00:55:27.551Z,9.00
2023-01-08T00:57:54.639Z,9.00
2023-01-08T01:00:21.433Z,9.00
2023-01-08T01:02:48.315Z,9.00
2023-01-08T01:05:16.830Z,9.10
2023-01-08T01:07:44.514Z,9.00
2023-01-08T01:10:13.558Z,9.10
2023-01-08T01:12:41.133Z,9.20
2023-01-08T01:15:10.671Z,9.20
2023-01-08T01:17:42.740Z,9.30
2023-01-08T01:20:12.721Z,9.50
2023-01-08T01:22:39.486Z,9.60
2023-01-08T01:25:07.479Z,9.60
2023-01-08T01:27:34.384Z,9.70
2023-01-08T01:30:01.815Z,9.60
2023-01-08T01:32:29.071Z,9.60
2023-01-08T01:34:55.925Z,9.70
2023-01-08T01:37:23.070Z,9.60
2023-01-08T01:39:50.058Z,9.50
2023-01-08T01:42:37.336Z,9.40
2023-01-08T01:45:16.712Z,9.40
2023-01-08T01:47:47.884Z,9.30
2023-01-08T01:50:30.438Z,9.30
2023-01-08T01:53:11.650Z,9.40
2023-01-08T01:55:43.600Z,9.40
2023-01-08T01:58:22.665Z,9.40
2023-01-08T02:00:50.191Z,9.50
2023-01-08T02:03:21.063Z,9.50
2023-01-08T02:06:16.299Z,9.50
2023-01-08T02:09:04.237Z,9.50
2023-01-08T02:11:38.056Z,9.50
2023-01-08T02:14:31.124Z,9.60
2023-01-08T02:17:04.222Z,9.60
2023-01-08T02:19:38.471Z,9.40
2023-01-08T02:22:11.200Z,9.20
2023-01-08T02:24:55.691Z,9.10
2023-01-08T02:27:27.879Z,9.00
2023-01-08T02:29:56.012Z,9.10
2023-01-08T02:32:27.586Z,9.10
2023-01-08T02:34:54.901Z,9.10
2023-01-08T02:37:21.757Z,9.20
2023-01-08T02:40:01.986Z,9.30
2023-01-08T02:42:43.003Z,9.30
2023-01-08T02:45:29.506Z,9.40
2023-01-08T02:48:12.612Z,9.40
2023-01-08T02:51:08.661Z,9.40
2023-01-08T02:53:43.483Z,9.30
2023-01-08T02:56:18.046Z,9.20
2023-01-08T02:58:47.929Z,9.10
2023-01-08T03:01:16.405Z,9.00
2023-01-08T03:03:46.778Z,9.00
2023-01-08T03:06:17.757Z,8.90
2023-01-08T03:08:47.737Z,8.90
2023-01-08T03:11:18.121Z,8.80
2023-01-08T03:14:21.133Z,8.70
2023-01-08T03:16:52.263Z,8.70
2023-01-08T03:19:23.548Z,8.60
2023-01-08T03:21:52.153Z,8.60
2023-01-08T03:24:24.229Z,8.60
2023-01-08T03:26:53.673Z,8.60
2023-01-08T03:29:24.406Z,8.70
2023-01-08T03:31:53.890Z,8.60
2023-01-08T03:34:22.322Z,8.60
2023-01-08T03:36:52.268Z,8.70
2023-01-08T03:39:42.379Z,8.60
2023-01-08T03:42:13.346Z,8.60
2023-01-08T03:44:40.128Z,8.60
2023-01-08T03:47:09.834Z,8.60
2023-01-08T03:49:37.928Z,8.60
2023-01-08T03:52:04.905Z,8.60
2023-01-08T03:54:34.994Z,8.60
2023-01-08T03:57:02.142Z,8.60
2023-01-08T03:59:29.313Z,8.70
2023-01-08T04:01:56.458Z,8.70
2023-01-08T04:04:23.466Z,8.70
2023-01-08T04:06:52.690Z,8.60
2023-01-08T04:09:19.629Z,8.60
2023-01-08T04:11:46.551Z,8.60
2023-01-08T04:14:13.653Z,8.50
2023-01-08T04:16:40.692Z,8.50
2023-01-08T04:19:07.708Z,8.40
2023-01-08T04:21:34.756Z,8.30
2023-01-08T04:24:01.816Z,8.30
2023-01-08T04:26:28.908Z,8.20
2023-01-08T04:28:55.923Z,8.20
2023-01-08T04:31:22.892Z,8.20
2023-01-08T04:33:49.692Z,8.20
2023-01-08T04:36:16.634Z,8.10
2023-01-08T04:38:43.704Z,8.00
2023-01-08T04:41:10.735Z,8.10
2023-01-08T04:43:37.799Z,8.00
2023-01-08T04:46:09.420Z,8.00
2023-01-08T04:48:36.866Z,8.00
2023-01-08T04:51:04.833Z,7.90
2023-01-08T04:53:36.736Z,7.90
2023-01-08T04:56:05.747Z,7.80
2023-01-08T04:58:34.382Z,7.80
2023-01-08T05:01:01.111Z,7.80
2023-01-08T05:03:28.169Z,7.80
2023-01-08T05:05:55.137Z,7.70
2023-01-08T05:08:22.196Z,7.70
2023-01-08T05:10:49.232Z,7.70
2023-01-08T05:13:16.269Z,7.70
2023-01-08T05:15:43.062Z,7.60
2023-01-08T05:18:10.284Z,7.60
2023-01-08T05:20:37.008Z,7.60
2023-01-08T05:23:04.899Z,7.60
2023-01-08T05:25:31.932Z,7.50
2023-01-08T05:27:59.006Z,7.50
2023-01-08T05:30:25.794Z,7.50
2023-01-08T05:32:52.961Z,7.50
2023-01-08T05:35:19.763Z,7.50
2023-01-08T05:37:46.768Z,7.40
2023-01-08T05:40:13.807Z,7.40
2023-01-08T05:42:40.909Z,7.40
2023-01-08T05:45:08.542Z,7.30
2023-01-08T05:47:36.564Z,7.40
2023-01-08T05:50:03.583Z,7.40
2023-01-08T05:52:30.336Z,7.30
2023-01-08T05:54:57.404Z,7.30
2023-01-08T05:57:24.369Z,7.30
2023-01-08T05:59:51.466Z,7.40
2023-01-08T06:02:18.472Z,7.30
2023-01-08T06:04:45.591Z,7.20
2023-01-08T06:07:12.619Z,7.30
2023-01-08T06:09:39.623Z,7.30
2023-01-08T06:12:06.934Z,7.30
2023-01-08T06:14:33.805Z,7.30
2023-01-08T06:17:00.800Z,7.30
2023-01-08T06:19:27.819Z,7.30
2023-01-08T06:21:54.879Z,7.30
2023-01-08T06:24:21.910Z,7.30
2023-01-08T06:26:48.934Z,7.30
2023-01-08T06:29:15.647Z,7.30
2023-01-08T06:31:42.696Z,7.40
2023-01-08T06:34:09.702Z,7.50
2023-01-08T06:36:36.751Z,7.50
2023-01-08T06:39:08.450Z,7.50
2023-01-08T06:41:35.395Z,7.50
2023-01-08T06:44:02.410Z,7.50
2023-01-08T06:46:29.504Z,7.50
2023-01-08T06:48:56.491Z,7.60
2023-01-08T06:51:23.555Z,7.60
2023-01-08T06:53:51.408Z,7.70
2023-01-08T06:56:18.456Z,7.70
2023-01-08T06:58:45.535Z,7.70
2023-01-08T07:01:15.731Z,7.80
2023-01-08T07:03:43.241Z,7.80
2023-01-08T07:06:18.305Z,7.80
2023-01-08T07:08:45.818Z,7.90
2023-01-08T07:11:13.541Z,7.90
2023-01-08T07:13:40.989Z,7.90
2023-01-08T07:16:09.738Z,7.90
2023-01-08T07:18:37.138Z,7.90
2023-01-08T07:21:05.350Z,7.90
2023-01-08T07:23:32.786Z,8.00
2023-01-08T07:26:03.557Z,8.00
2023-01-08T07:28:30.866Z,8.00
2023-01-08T07:30:57.998Z,8.00
2023-01-08T07:33:24.780Z,8.00
2023-01-08T07:35:53.348Z,8.00
2023-01-08T07:38:20.243Z,8.00
2023-01-08T07:40:47.408Z,8.10
2023-01-08T07:43:14.706Z,8.10
2023-01-08T07:45:41.716Z,8.10
2023-01-08T07:48:15.765Z,8.10
2023-01-08T07:50:43.940Z,8.10
2023-01-08T07:53:12.712Z,8.10
2023-01-08T07:55:39.813Z,8.10
2023-01-08T07:58:12.099Z,8.20
2023-01-08T08:00:39.464Z,8.20
2023-01-08T08:03:08.147Z,8.30
2023-01-08T08:05:35.525Z,8.30
2023-01-08T08:08:02.360Z,8.30
2023-01-08T08:10:29.369Z,8.40
2023-01-08T08:12:56.410Z,8.40
2023-01-08T08:15:23.427Z,8.50
2023-01-08T08:17:50.594Z,8.50
2023-01-08T08:20:17.663Z,8.40
2023-01-08T08:22:44.662Z,8.40
2023-01-08T08:25:15.093Z,8.30
2023-01-08T08:27:42.931Z,8.40
2023-01-08T08:30:11.458Z,8.30
2023-01-08T08:32:38.698Z,8.30
2023-01-08T08:35:06.186Z,8.30
2023-01-08T08:37:33.084Z,8.30
2023-01-08T08:40:00.110Z,8.40
2023-01-08T08:42:27.080Z,8.30
2023-01-08T08:44:54.165Z,8.50
2023-01-08T08:47:21.207Z,8.50
2023-01-08T08:49:49.118Z,8.60
2023-01-08T08:52:16.417Z,8.70
2023-01-08T08:54:43.281Z,8.70
2023-01-08T08:57:10.469Z,8.60
2023-01-08T08:59:37.296Z,8.50
2023-01-08T09:02:05.198Z,8.50
2023-01-08T09:04:33.548Z,8.50
2023-01-08T09:07:00.942Z,8.40
2023-01-08T09:09:28.039Z,8.40
2023-01-08T09:11:56.008Z,8.40
2023-01-08T09:14:22.857Z,8.40
2023-01-08T09:16:49.618Z,8.40
2023-01-08T09:19:16.523Z,8.50
2023-01-08T09:21:43.812Z,8.50
2023-01-08T09:24:10.952Z,8.50
2023-01-08T09:26:37.703Z,8.60
2023-01-08T09:29:04.991Z,8.60
2023-01-08T09:31:31.897Z,8.60
2023-01-08T09:33:58.836Z,8.60
2023-01-08T09:36:25.875Z,8.60
2023-01-08T09:38:52.978Z,8.70
2023-01-08T09:41:25.132Z,8.80
2023-01-08T09:43:54.964Z,8.80
2023-01-08T09:46:23.809Z,8.80
2023-01-08T09:48:52.695Z,8.90
2023-01-08T09:51:21.384Z,9.00
2023-01-08T09:53:54.601Z,9.00
2023-01-08T09:56:21.616Z,9.00
2023-01-08T09:58:54.382Z,9.10
2023-01-08T10:01:24.245Z,9.10
2023-01-08T10:03:57.719Z,9.10
2023-01-08T10:06:25.368Z,9.20
2023-01-08T10:08:52.593Z,9.30
2023-01-08T10:11:20.083Z,9.40
2023-01-08T10:13:52.209Z,9.60
2023-01-08T10:16:41.216Z,9.70
2023-01-08T10:19:09.999Z,9.80
2023-01-08T10:21:41.600Z,9.80
2023-01-08T10:24:08.683Z,9.90
2023-01-08T10:26:37.578Z,9.90
2023-01-08T10:29:10.093Z,9.90
2023-01-08T10:32:00.183Z,9.90
2023-01-08T10:34:55.720Z,10.10
2023-01-08T10:37:24.008Z,10.10
2023-01-08T10:39:52.684Z,10.10
2023-01-08T10:42:21.000Z,10.10
2023-01-08T10:45:00.912Z,10.30
2023-01-08T10:47:31.270Z,10.10
2023-01-08T10:49:59.978Z,10.10
2023-01-08T10:52:32.826Z,10.10
2023-01-08T10:55:23.917Z,10.10
2023-01-08T10:58:00.050Z,10.10
2023-01-08T11:00:30.171Z,10.10
2023-01-08T11:03:08.629Z,10.10
2023-01-08T11:05:40.602Z,10.20
2023-01-08T11:08:15.793Z,10.30
2023-01-08T11:10:42.693Z,10.40
2023-01-08T11:13:19.603Z,11.10
2023-01-08T11:15:47.111Z,12.40
2023-01-08T11:18:20.257Z,13.60
2023-01-08T11:20:48.042Z,14.40
2023-01-08T11:23:19.646Z,14.10
2023-01-08T11:25:59.712Z,13.90
2023-01-08T11:28:45.282Z,14.80
2023-01-08T11:31:21.190Z,15.00
2023-01-08T11:33:52.401Z,15.00
2023-01-08T11:36:33.651Z,14.80
2023-01-08T11:39:02.154Z,14.90
2023-01-08T11:41:56.751Z,14.80
2023-01-08T11:44:43.709Z,15.60
2023-01-08T11:47:40.731Z,15.10
2023-01-08T11:50:19.058Z,13.90
2023-01-08T11:53:04.878Z,12.90
2023-01-08T11:55:47.510Z,12.50
2023-01-08T11:58:33.248Z,12.40
2023-01-08T12:01:14.669Z,12.90
2023-01-08T12:04:04.082Z,12.60
2023-01-08T12:06:47.361Z,12.20
2023-01-08T12:09:34.170Z,11.80
2023-01-08T12:12:45.615Z,11.60
2023-01-08T12:15:18.163Z,11.80
2023-01-08T12:18:05.066Z,11.80
2023-01-08T12:20:54.984Z,11.80
2023-01-08T12:23:27.699Z,11.40
2023-01-08T12:26:18.794Z,11.30
2023-01-08T12:29:14.807Z,11.40
2023-01-08T12:32:01.903Z,11.50
2023-01-08T12:34:58.067Z,11.50
2023-01-08T12:37:51.082Z,11.40
2023-01-08T12:40:35.701Z,11.20
2023-01-08T12:43:14.737Z,11.10
2023-01-08T12:45:48.167Z,11.20
2023-01-08T12:48:16.669Z,12.00
2023-01-08T12:51:04.161Z,13.20
2023-01-08T12:53:49.418Z,14.40
2023-01-08T12:56:20.557Z,14.50
2023-01-08T12:59:10.842Z,14.40
2023-01-08T13:02:02.601Z,14.30
2023-01-08T13:04:40.257Z,13.90
2023-01-08T13:07:12.029Z,13.60
2023-01-08T13:09:39.538Z,13.90
2023-01-08T13:12:06.772Z,13.70
2023-01-08T13:14:42.210Z,13.60
2023-01-08T13:17:21.398Z,13.50
2023-01-08T13:20:00.237Z,12.70
2023-01-08T13:22:29.159Z,12.80
2023-01-08T13:25:09.578Z,13.00
2023-01-08T13:27:37.716Z,13.00
2023-01-08T13:30:40.860Z,13.40
2023-01-08T13:33:27.959Z,13.60
2023-01-08T13:36:13.191Z,12.90
2023-01-08T13:38:41.062Z,12.20
2023-01-08T13:41:27.929Z,11.70
2023-01-08T13:44:25.493Z,11.40
2023-01-08T13:47:06.197Z,11.30
2023-01-08T13:49:53.879Z,11.20
2023-01-08T13:52:47.142Z,11.40
2023-01-08T13:55:21.135Z,11.70
2023-01-08T13:57:52.660Z,11.60
2023-01-08T14:00:26.128Z,11.70
2023-01-08T14:02:54.961Z,11.70
2023-01-08T14:05:34.693Z,12.00
2023-01-08T14:08:01.602Z,12.20
2023-01-08T14:10:29.581Z,12.20
2023-01-08T14:13:08.623Z,12.00
2023-01-08T14:15:38.155Z,12.50
2023-01-08T14:18:05.278Z,12.80
2023-01-08T14:20:40.632Z,12.90
2023-01-08T14:23:18.931Z,12.90
2023-01-08T14:25:49.483Z,13.10
2023-01-08T14:28:19.511Z,13.40
2023-01-08T14:30:50.137Z,13.10
2023-01-08T14:33:20.642Z,12.40
2023-01-08T14:35:49.081Z,11.90
2023-01-08T14:38:16.197Z,11.50
2023-01-08T14:40:50.961Z,11.20
2023-01-08T14:43:21.198Z,10.90
2023-01-08T14:45:52.104Z,10.80
2023-01-08T14:48:24.350Z,10.70
2023-01-08T14:51:05.133Z,10.70
2023-01-08T14:53:35.872Z,10.50
2023-01-08T14:56:04.409Z,10.40
2023-01-08T14:58:39.039Z,10.40
2023-01-08T15:01:16.647Z,10.50
2023-01-08T15:03:48.892Z,10.50
2023-01-08T15:06:31.009Z,10.40
2023-01-08T15:09:00.047Z,10.30
2023-01-08T15:11:31.279Z,10.30
2023-01-08T15:13:58.797Z,10.20
2023-01-08T15:16:56.699Z,10.20
2023-01-08T15:19:27.017Z,10.20
2023-01-08T15:22:00.221Z,10.20
2023-01-08T15:24:39.850Z,10.20
2023-01-08T15:27:10.652Z,10.20
2023-01-08T15:30:00.780Z,10.30
2023-01-08T15:32:37.110Z,10.20
2023-01-08T15:35:18.149Z,10.30
2023-01-08T15:37:45.691Z,10.30
2023-01-08T15:40:13.073Z,10.30
2023-01-08T15:42:58.597Z,10.20
2023-01-08T15:45:31.862Z,10.20
2023-01-08T15:47:58.763Z,10.20
2023-01-08T15:50:27.643Z,10.20
2023-01-08T15:52:56.349Z,10.20
2023-01-08T15:55:24.666Z,10.30
2023-01-08T15:57:51.887Z,10.20
2023-01-08T16:00:20.284Z,10.20
2023-01-08T16:02:49.893Z,10.20
2023-01-08T16:05:18.235Z,10.10
2023-01-08T16:07:48.153Z,10.10
2023-01-08T16:10:16.487Z,10.00
2023-01-08T16:12:43.558Z,10.00
2023-01-08T16:15:11.829Z,9.90
2023-01-08T16:17:38.875Z,9.80
2023-01-08T16:20:08.162Z,9.80
2023-01-08T16:22:35.115Z,9.70
2023-01-08T16:25:02.171Z,9.60
2023-01-08T16:27:31.295Z,9.60
2023-01-08T16:29:58.660Z,9.60
2023-01-08T16:32:25.390Z,9.50
2023-01-08T16:34:54.810Z,9.50
2023-01-08T16:37:22.488Z,9.50
2023-01-08T16:39:49.581Z,9.40
2023-01-08T16:42:16.526Z,9.40
2023-01-08T16:44:43.685Z,9.40
2023-01-08T16:47:11.080Z,9.40
2023-01-08T16:49:38.952Z,9.50
2023-01-08T16:52:06.706Z,9.50
2023-01-08T16:54:33.758Z,9.50
2023-01-08T16:57:00.762Z,9.50
2023-01-08T16:59:27.816Z,9.60
2023-01-08T17:01:55.417Z,9.60
2023-01-08T17:04:22.389Z,9.60
2023-01-08T17:06:49.980Z,9.60
2023-01-08T17:09:16.867Z,9.60
2023-01-08T17:11:43.967Z,9.60
2023-01-08T17:14:11.212Z,9.70
2023-01-08T17:16:38.042Z,9.70
2023-01-08T17:19:05.071Z,9.70
2023-01-08T17:21:33.601Z,9.80
2023-01-08T17:24:00.362Z,9.80
2023-01-08T17:26:27.510Z,9.80
2023-01-08T17:28:54.945Z,9.80
2023-01-08T17:31:21.941Z,9.80
2023-01-08T17:33:50.368Z,9.80
2023-01-08T17:36:19.997Z,9.70
2023-01-08T17:38:49.203Z,9.70
2023-01-08T17:41:36.323Z,9.60
2023-01-08T17:44:06.860Z,9.50
2023-01-08T17:46:43.824Z,9.50
2023-01-08T17:49:12.569Z,9.40
2023-01-08T17:51:40.847Z,9.30
2023-01-08T17:54:10.992Z,9.40
2023-01-08T17:56:37.999Z,9.30
2023-01-08T17:59:04.948Z,9.20
2023-01-08T18:01:33.966Z,9.20
2023-01-08T18:04:01.476Z,9.20
2023-01-08T18:06:28.728Z,9.20
2023-01-08T18:08:55.530Z,9.20
2023-01-08T18:11:22.664Z,9.20
2023-01-08T18:13:55.173Z,9.20
2023-01-08T18:16:22.180Z,9.20
2023-01-08T18:18:49.048Z,9.20
2023-01-08T18:21:16.103Z,9.20
2023-01-08T18:23:44.028Z,9.20
2023-01-08T18:26:12.515Z,9.30
2023-01-08T18:28:39.716Z,9.30
2023-01-08T18:31:08.256Z,9.40
2023-01-08T18:33:36.179Z,9.40
2023-01-08T18:36:06.360Z,9.30
2023-01-08T18:38:33.548Z,9.30
2023-01-08T18:41:00.339Z,9.30
2023-01-08T18:43:28.339Z,9.30
2023-01-08T18:46:07.334Z,9.30
2023-01-08T18:48:35.299Z,9.20
2023-01-08T18:51:05.347Z,9.20
2023-01-08T18:53:33.017Z,9.20
2023-01-08T18:56:00.848Z,9.20
2023-01-08T18:58:28.463Z,9.20
2023-01-08T19:00:55.423Z,9.20
2023-01-08T19:03:22.616Z,9.20
2023-01-08T19:05:49.723Z,9.20
2023-01-08T19:08:16.666Z,9.10
2023-01-08T19:10:43.691Z,9.10
2023-01-08T19:13:10.745Z,9.10
2023-01-08T19:15:38.208Z,9.10
2023-01-08T19:18:08.734Z,9.10
2023-01-08T19:20:35.944Z,9.00
2023-01-08T19:23:02.630Z,9.00
2023-01-08T19:25:29.646Z,9.00
2023-01-08T19:27:56.696Z,9.00
2023-01-08T19:30:23.361Z,9.00
2023-01-08T19:32:50.474Z,9.10
2023-01-08T19:35:17.665Z,9.00
2023-01-08T19:37:44.525Z,9.10
2023-01-08T19:40:12.093Z,9.10
2023-01-08T19:42:57.821Z,9.10
2023-01-08T19:45:24.644Z,9.10
2023-01-08T19:47:53.511Z,9.10
2023-01-08T19:50:23.330Z,9.10
2023-01-08T19:52:52.746Z,9.20
2023-01-08T19:55:22.087Z,9.20
2023-01-08T19:57:51.932Z,9.20
2023-01-08T20:00:22.181Z,9.20
2023-01-08T20:02:51.203Z,9.20
2023-01-08T20:05:18.147Z,9.20
2023-01-08T20:07:45.208Z,9.30
2023-01-08T20:10:12.759Z,9.20
2023-01-08T20:12:40.015Z,9.20
2023-01-08T20:15:07.574Z,9.20
2023-01-08T20:17:34.556Z,9.20
2023-01-08T20:20:01.853Z,9.20
2023-01-08T20:22:29.447Z,9.20
2023-01-08T20:24:58.456Z,9.20
2023-01-08T20:27:25.637Z,9.10
2023-01-08T20:29:52.662Z,9.00
2023-01-08T20:32:21.588Z,9.00
2023-01-08T20:34:50.357Z,9.10
2023-01-08T20:37:17.116Z,9.10
2023-01-08T20:39:44.112Z,9.20
2023-01-08T20:42:12.294Z,9.10
2023-01-08T20:44:44.018Z,8.40
2023-01-08T20:47:10.992Z,8.10
2023-01-08T20:49:38.142Z,7.60
2023-01-08T20:52:05.150Z,7.20
2023-01-08T20:54:32.154Z,6.90
2023-01-08T20:57:00.267Z,6.90
2023-01-08T20:59:28.192Z,6.80
2023-01-08T21:01:57.027Z,6.90
2023-01-08T21:04:24.473Z,6.90
2023-01-08T21:06:51.487Z,7.00
2023-01-08T21:09:18.657Z,7.10
2023-01-08T21:11:45.643Z,7.00
2023-01-08T21:14:12.723Z,7.10
2023-01-08T21:16:40.498Z,7.10
2023-01-08T21:19:10.194Z,7.20
2023-01-08T21:21:40.254Z,7.20
2023-01-08T21:24:09.459Z,7.20
2023-01-08T21:26:37.843Z,7.40
2023-01-08T21:29:06.452Z,7.50
2023-01-08T21:31:35.022Z,7.50
2023-01-08T21:34:03.174Z,7.50
2023-01-08T21:36:31.753Z,7.50
2023-01-08T21:39:00.468Z,7.50
2023-01-08T21:41:47.629Z,7.40
2023-01-08T21:44:38.476Z,7.50
2023-01-08T21:47:08.084Z,7.50
2023-01-08T21:49:36.006Z,7.40
2023-01-08T21:52:22.137Z,7.40
2023-01-08T21:54:49.068Z,7.40
2023-01-08T21:57:16.706Z,7.30
2023-01-08T21:59:43.980Z,7.30
2023-01-08T22:02:18.574Z,7.30
2023-01-08T22:04:46.040Z,7.30
2023-01-08T22:07:13.735Z,7.30
2023-01-08T22:09:40.865Z,7.30
2023-01-08T22:12:07.953Z,7.20
2023-01-08T22:14:35.338Z,7.30
2023-01-08T22:17:04.029Z,7.30
2023-01-08T22:19:30.978Z,7.30
2023-01-08T22:21:58.002Z,7.20
2023-01-08T22:24:25.086Z,7.10
2023-01-08T22:26:52.077Z,7.20
2023-01-08T22:29:19.141Z,7.20
2023-01-08T22:31:46.270Z,7.20
2023-01-08T22:34:16.815Z,7.10
2023-01-08T22:36:45.114Z,7.10
2023-01-08T22:39:12.634Z,7.10
2023-01-08T22:41:39.712Z,7.10
2023-01-08T22:44:06.945Z,7.10
2023-01-08T22:46:33.784Z,7.10
2023-01-08T22:49:00.907Z,7.00
2023-01-08T22:51:27.926Z,7.00
2023-01-08T22:53:59.194Z,6.90
2023-01-08T22:56:26.535Z,6.90
2023-01-08T22:58:53.914Z,7.00
2023-01-08T23:01:29.647Z,7.00
2023-01-08T23:03:59.142Z,6.90
2023-01-08T23:06:28.113Z,6.90
2023-01-08T23:08:55.877Z,6.90
2023-01-08T23:11:24.064Z,7.00
2023-01-08T23:13:51.609Z,7.10
2023-01-08T23:16:21.847Z,7.00
2023-01-08T23:18:49.960Z,7.00
2023-01-08T23:21:19.506Z,7.00
2023-01-08T23:23:46.982Z,7.00
2023-01-08T23:26:18.505Z,7.00
2023-01-08T23:28:50.461Z,7.00
2023-01-08T23:31:19.665Z,7.10
2023-01-08T23:33:46.648Z,7.10
2023-01-08T23:36:19.016Z,7.10
2023-01-08T23:38:47.078Z,7.00
2023-01-08T23:41:14.582Z,7.00
2023-01-08T23:43:41.810Z,7.00
2023-01-08T23:46:09.441Z,6.90
2023-01-08T23:48:36.286Z,6.90
2023-01-08T23:51:03.450Z,6.80
2023-01-08T23:53:30.696Z,6.90
2023-01-08T23:55:57.417Z,6.80
2023-01-08T23:58:24.924Z,6.80
